Time;durP1;ratioP1;P1;durP2;ratioP2;P2;SDS_P1;SDS_P2;PMS_P1;PMS_P2;Temp;Humidity;BMP_temperature;BMP_pressure;BME280_temperature;BME280_humidity;BME280_pressure;Samples;Min_cycle;Max_cycle;Signal;HPM_P1;HPM_P2
2022/06/20 00:00:17;;;;;;;9.27;2.22;;;;;;;14.62;80.09;101365.59;5076016;28;20384;-36
2022/06/20 00:02:52;;;;;;;6.75;1.90;;;;;;;14.63;79.34;101370.78;5073613;28;20036;-36
2022/06/20 00:05:23;;;;;;;8.20;1.63;;;;;;;14.60;78.78;101371.28;5076216;28;20029;-36
2022/06/20 00:07:49;;;;;;;7.15;2.05;;;;;;;14.64;80.46;101369.72;5076472;28;20486;-36
2022/06/20 00:10:16;;;;;;;;;;;;;;;14.79;78.38;101380.06;5075793;28;20068;-36
2022/06/20 00:12:42;;;;;;;7.43;1.90;;;;;;;14.58;79.15;101373.41;5076136;28;19912;-36
2022/06/20 00:15:20;;;;;;;4.95;1.77;;;;;;;14.43;79.19;101360.31;5073156;28;20166;-36
2022/06/20 00:17:46;;;;;;;11.40;2.28;;;;;;;14.46;80.00;101374.53;5075461;28;20031;-36
2022/06/20 00:20:11;;;;;;;;;;;;;;;14.58;78.63;101367.13;5075852;28;20453;-36
2022/06/20 00:22:37;;;;;;;8.10;1.70;;;;;;;14.40;79.15;101368.16;5075464;28;20265;-36
2022/06/20 00:25:02;;;;;;;;;;;;;;;14.55;77.96;101367.66;5073834;28;20043;-36
2022/06/20 00:27:27;;;;;;;5.95;1.75;;;;;;;14.45;79.44;101367.44;5075859;28;19908;-36
2022/06/20 00:29:53;;;;;;;;;;;;;;;14.57;78.35;101387.28;5072965;28;20041;-36
2022/06/20 00:32:18;;;;;;;9.90;1.77;;;;;;;14.43;79.60;101403.03;5075031;28;19919;-36
2022/06/20 00:34:43;;;;;;;;;;;;;;;14.60;78.25;101424.91;5073813;28;20033;-36
2022/06/20 00:37:16;;;;;;;5.07;1.60;;;;;;;14.38;78.54;101438.31;5075229;28;19969;-36
2022/06/20 00:39:42;;;;;;;10.38;2.38;;;;;;;14.40;78.42;101439.72;5074897;28;20025;-36
2022/06/20 00:42:09;;;;;;;;;;;;;;;14.53;77.79;101449.50;5075356;28;20032;-36
2022/06/20 00:44:39;;;;;;;6.80;1.55;;;;;;;14.36;78.53;101473.09;5075767;28;19938;-36
2022/06/20 00:47:14;;;;;;;7.03;1.90;;;;;;;14.42;79.05;101499.34;5072956;28;20029;-36
2022/06/20 00:49:52;;;;;;;7.22;1.58;;;;;;;14.44;78.90;101516.25;5074555;28;20541;-36
2022/06/20 00:52:35;;;;;;;5.80;1.85;;;;;;;14.45;78.79;101526.09;5074947;28;20033;-36
2022/06/20 00:55:10;;;;;;;4.90;1.75;;;;;;;14.37;79.99;101534.59;5075426;28;20066;-36
2022/06/20 00:58:16;;;;;;;7.45;2.38;;;;;;;14.53;78.79;101585.59;5073095;28;20054;-36
2022/06/20 01:00:43;;;;;;;9.18;1.90;;;;;;;14.39;78.61;101593.13;5074974;28;20029;-36
2022/06/20 01:03:13;;;;;;;5.85;1.77;;;;;;;14.52;80.25;101608.44;5074632;28;20029;-36
2022/06/20 01:06:11;;;;;;;8.20;1.95;;;;;;;14.49;79.20;101600.75;5075087;28;20406;-36
2022/06/20 01:08:39;;;;;;;;;;;;;;;14.63;78.34;101577.63;5074525;28;20028;-36
2022/06/20 01:11:11;;;;;;;7.07;1.90;;;;;;;14.48;79.44;101558.28;5074458;28;19958;-36
2022/06/20 01:13:37;;;;;;;4.32;1.42;;;;;;;14.47;80.38;101545.69;5074625;28;20028;-36
2022/06/20 01:16:13;;;;;;;;;;;;;;;14.60;78.79;101533.75;5074791;28;20032;-36
2022/06/20 01:18:40;;;;;;;7.00;2.03;;;;;;;14.39;79.09;101511.50;5072361;28;19927;-36
2022/06/20 01:21:12;;;;;;;5.35;1.70;;;;;;;14.49;79.33;101521.81;5074398;28;20372;-36
2022/06/20 01:24:08;;;;;;;6.38;1.55;;;;;;;14.46;78.70;101516.84;5073963;28;20028;-36
2022/06/20 01:26:33;;;;;;;9.50;2.08;;;;;;;14.35;79.24;101504.09;5074459;28;20043;-36
2022/06/20 01:29:00;;;;;;;;;;;;;;;14.59;77.99;101494.84;5064601;28;20060;-36
2022/06/20 01:31:30;;;;;;;7.70;2.20;;;;;;;14.40;81.07;101496.03;5069644;28;19912;-36
2022/06/20 01:33:56;;;;;;;9.48;1.85;;;;;;;14.33;80.87;101481.72;5074028;28;20059;-36
2022/06/20 01:39:07;;;;;;;7.07;2.05;;;;;;;14.20;81.24;101482.00;5071792;28;20079;-36
2022/06/20 01:44:19;;;;;;;7.40;1.60;;;;;;;14.20;81.25;101473.81;5073777;28;20047;-36
2022/06/20 01:46:44;;;;;;;9.68;1.85;;;;;;;14.08;81.19;101471.97;5073941;28;20380;-36
2022/06/20 01:49:12;;;;;;;;;;;;;;;14.26;79.60;101462.00;5072129;28;20040;-36
2022/06/20 01:51:43;;;;;;;9.00;2.20;;;;;;;14.08;81.47;101455.66;5073917;28;19908;-36
2022/06/20 01:54:12;;;;;;;5.53;1.60;;;;;;;13.87;81.73;101448.94;5073583;28;20385;-36
2022/06/20 01:56:39;;;;;;;5.80;1.60;;;;;;;13.96;81.74;101454.84;5073608;28;20083;-36
2022/06/20 01:59:10;;;;;;;7.88;1.58;;;;;;;13.90;82.59;101442.19;5071943;28;20393;-36
2022/06/20 02:01:37;;;;;;;6.72;1.75;;;;;;;13.91;82.42;101422.13;5073072;28;20063;-36
2022/06/20 02:04:06;;;;;;;6.55;1.65;;;;;;;13.83;82.39;101433.34;5073400;28;20118;-36
2022/06/20 02:06:33;;;;;;;5.50;1.75;;;;;;;13.94;82.23;101453.44;5073855;28;20098;-36
2022/06/20 02:08:59;;;;;;;9.15;1.80;;;;;;;13.96;81.82;101441.25;5071239;28;20025;-36
2022/06/20 02:11:27;;;;;;;;;;;;;;;14.12;80.39;101447.84;5073723;28;20077;-36
2022/06/20 02:13:58;;;;;;;7.40;2.20;;;;;;;13.83;82.27;101442.34;5073494;28;19942;-36
2022/06/20 02:16:26;;;;;;;5.10;1.40;;;;;;;13.91;82.88;101433.00;5073688;28;20032;-36
2022/06/20 02:18:57;;;;;;;11.02;2.22;;;;;;;13.78;83.25;101427.81;5072920;28;20024;-36
2022/06/20 02:21:28;;;;;;;7.85;1.90;;;;;;;13.85;82.80;101417.63;5071057;28;20040;-36
2022/06/20 02:24:00;;;;;;;5.13;1.60;;;;;;;13.78;83.91;101397.91;5073209;28;20058;-36
2022/06/20 02:26:27;;;;;;;10.02;2.65;;;;;;;13.96;84.75;101402.34;5073558;28;20099;-35
2022/06/20 02:29:21;;;;;;;6.18;1.58;;;;;;;13.94;83.78;101397.16;5072485;28;20029;-36
2022/06/20 02:31:50;;;;;;;4.28;1.45;;;;;;;13.90;83.78;101393.25;5053313;28;20142;-36
2022/06/20 02:34:16;;;;;;;6.38;1.92;;;;;;;13.86;82.68;101384.78;5053271;28;20036;-36
2022/06/20 02:36:41;;;;;;;;;;;;;;;13.99;81.81;101389.09;5053475;28;20024;-36
2022/06/20 02:39:07;;;;;;;6.93;1.73;;;;;;;13.83;82.86;101381.69;5052584;28;19915;-36
2022/06/20 02:41:33;;;;;;;6.65;2.03;;;;;;;13.71;81.87;101399.91;5053599;28;20288;-36
2022/06/20 02:44:05;;;;;;;5.63;1.58;;;;;;;13.71;82.08;101399.91;5052884;28;20064;-36
2022/06/20 02:46:31;;;;;;;7.32;1.58;;;;;;;13.60;82.03;101399.69;5053374;28;20037;-36
2022/06/20 02:48:59;;;;;;;7.68;1.90;;;;;;;13.64;82.87;101395.44;5052801;28;20032;-36
2022/06/20 02:51:30;;;;;;;5.75;1.52;;;;;;;13.63;82.52;101382.91;5053169;28;20041;-36
2022/06/20 02:53:58;;;;;;;8.00;1.73;;;;;;;13.55;82.63;101375.13;5053300;28;20067;-36
2022/06/20 02:56:27;;;;;;;8.40;1.80;;;;;;;13.63;82.87;101369.31;5053320;28;20060;-36
2022/06/20 02:59:05;;;;;;;5.38;1.60;;;;;;;13.67;82.91;101366.16;5052484;28;20045;-36
2022/06/20 03:01:45;;;;;;;5.70;1.70;;;;;;;13.59;82.57;101340.97;5054091;28;20441;-36
2022/06/20 03:04:11;;;;;;;7.13;1.90;;;;;;;13.64;82.35;101348.41;5052629;28;20032;-36
2022/06/20 03:06:39;;;;;;;;;;;;;;;13.71;81.38;101346.38;5052818;28;20470;-36
2022/06/20 03:09:05;;;;;;;7.72;1.73;;;;;;;13.47;82.13;101320.31;5052658;28;19909;-36
2022/06/20 03:11:32;;;;;;;;;;;;;;;13.70;81.28;101341.19;5053344;28;20044;-36
2022/06/20 03:14:02;;;;;;;8.15;1.65;;;;;;;13.64;81.96;101322.06;5053094;28;19912;-36
2022/06/20 03:16:28;;;;;;;5.43;1.63;;;;;;;13.57;82.45;101321.38;5052620;28;20029;-36
2022/06/20 03:18:55;;;;;;;;;;;;;;;13.70;81.15;101327.59;5052720;28;20071;-36
2022/06/20 03:21:24;;;;;;;5.65;1.70;;;;;;;13.59;82.13;101332.81;5052530;28;20011;-36
2022/06/20 03:23:50;;;;;;;7.25;1.80;;;;;;;13.45;81.81;101336.84;5053301;28;20048;-36
2022/06/20 03:26:25;;;;;;;;;;;;;;;13.52;81.64;101347.63;5052623;28;20473;-36
2022/06/20 03:28:51;;;;;;;5.63;1.50;;;;;;;13.41;82.65;101341.09;5052463;28;19934;-36
2022/06/20 03:31:17;;;;;;;6.38;1.52;;;;;;;13.48;83.66;101352.69;5052875;28;20036;-36
2022/06/20 03:33:43;;;;;;;;;;;;;;;13.60;82.14;101372.50;5053654;28;20034;-36
2022/06/20 03:36:25;;;;;;;6.32;1.98;;;;;;;13.62;82.74;101386.69;5052889;28;19966;-35
2022/06/20 03:38:50;;;;;;;8.23;1.95;;;;;;;13.61;82.51;101387.75;5052579;28;20033;-36
2022/06/20 03:41:21;;;;;;;;;;;;;;;13.72;81.47;101380.66;5053026;28;20454;-36
2022/06/20 03:43:52;;;;;;;5.55;1.88;;;;;;;13.58;83.05;101380.09;5053268;28;19927;-36
2022/06/20 03:46:27;;;;;;;7.00;2.03;;;;;;;13.61;83.58;101374.16;5053078;28;20067;-36
2022/06/20 03:49:05;;;;;;;8.35;1.70;;;;;;;13.57;83.92;101366.75;5052282;28;20025;-36
2022/06/20 03:52:02;;;;;;;7.90;1.80;;;;;;;13.72;83.46;101391.53;5052768;28;20135;-36
2022/06/20 03:54:33;;;;;;;;;;;;;;;13.82;82.79;101408.06;5048717;28;20398;-36
2022/06/20 03:57:06;;;;;;;5.57;1.80;;;;;;;13.66;85.11;101416.94;5052188;28;19913;-36
2022/06/20 03:59:43;;;;;;;8.02;1.80;;;;;;;13.71;85.50;101432.53;5052668;28;20373;-35
2022/06/20 04:02:37;;;;;;;5.75;1.60;;;;;;;13.74;85.02;101432.06;5052547;28;20420;-36
2022/06/20 04:05:08;;;;;;;5.35;1.63;;;;;;;13.71;85.56;101421.66;5056220;28;20035;-36
2022/06/20 04:08:00;;;;;;;5.40;1.70;;;;;;;13.82;84.70;101429.00;5056434;28;20361;-36
2022/06/20 04:13:31;;;;;;;8.80;1.73;;;;;;;13.80;85.42;101426.47;5034515;28;20063;-36
2022/06/20 04:16:02;;;;;;;3.38;1.48;;;;;;;13.78;85.37;101441.41;5033735;28;20048;-36
2022/06/20 04:18:38;;;;;;;6.70;1.83;;;;;;;13.78;86.11;101446.84;5033338;28;20037;-36
2022/06/20 04:21:15;;;;;;;6.60;2.08;;;;;;;13.77;86.51;101439.75;5034430;28;20038;-36
2022/06/20 04:24:17;;;;;;;5.43;1.95;;;;;;;13.89;85.32;101452.25;5033397;28;20033;-36
2022/06/20 04:27:04;;;;;;;5.95;1.77;;;;;;;13.92;85.15;101456.41;5033587;28;20428;-36
2022/06/20 04:30:12;;;;;;;5.55;1.77;;;;;;;13.98;84.62;101457.31;5032975;28;20025;-36
2022/06/20 04:32:42;;;;;;;7.05;2.00;;;;;;;13.95;85.23;101455.06;5025284;28;20036;-36
2022/06/20 04:35:13;;;;;;;7.05;1.90;;;;;;;14.01;85.45;101460.41;5033461;28;20040;-36
2022/06/20 04:37:56;;;;;;;5.97;1.42;;;;;;;14.06;85.18;101463.22;5033250;28;20055;-36
2022/06/20 04:40:37;;;;;;;4.47;1.23;;;;;;;14.05;85.03;101458.00;5033364;28;20049;-35
2022/06/20 04:43:10;;;;;;;9.40;2.58;;;;;;;14.02;85.19;101464.78;5033158;28;20116;-35
2022/06/20 04:45:55;;;;;;;7.63;2.53;;;;;;;14.11;84.72;101463.34;5032966;28;20395;-36
2022/06/20 04:48:23;;;;;;;7.82;1.95;;;;;;;14.11;84.78;101457.91;5052118;28;20102;-36
2022/06/20 04:50:53;;;;;;;6.75;1.65;;;;;;;14.16;84.89;101466.16;5054763;28;20075;-36
2022/06/20 04:53:24;;;;;;;5.53;1.77;;;;;;;14.26;85.29;101486.50;5054940;28;20079;-36
2022/06/20 04:55:53;;;;;;;7.03;1.83;;;;;;;14.23;86.23;101479.63;5054585;28;20032;-36
2022/06/20 04:58:28;;;;;;;8.38;1.90;;;;;;;14.21;85.93;101498.09;5054823;28;20084;-36
2022/06/20 05:00:55;;;;;;;8.40;2.33;;;;;;;14.23;86.18;101484.25;5054442;28;20025;-36
2022/06/20 05:03:24;;;;;;;6.65;1.92;;;;;;;14.26;86.08;101483.78;5054759;28;20033;-36
2022/06/20 05:05:52;;;;;;;8.63;1.95;;;;;;;14.25;85.49;101482.09;5054959;28;20032;-36
2022/06/20 05:08:25;;;;;;;4.03;2.05;;;;;;;14.31;85.83;101487.44;5054900;28;20071;-36
2022/06/20 05:11:19;;;;;;;8.60;2.22;;;;;;;14.34;85.58;101489.66;5055137;28;20059;-36
2022/06/20 05:13:57;;;;;;;4.55;1.48;;;;;;;14.24;85.37;101489.44;5054352;28;20025;-36
2022/06/20 05:16:27;;;;;;;6.93;1.85;;;;;;;14.20;85.45;101493.72;5054733;28;20027;-36
2022/06/20 05:18:57;;;;;;;6.05;1.70;;;;;;;14.14;84.91;101500.91;5054392;28;20033;-36
2022/06/20 05:21:28;;;;;;;4.35;1.40;;;;;;;14.25;85.83;101490.25;5054117;28;20025;-36
2022/06/20 05:23:58;;;;;;;6.15;1.65;;;;;;;14.23;85.33;101495.13;5054621;28;20358;-35
2022/06/20 05:26:28;;;;;;;4.47;1.25;;;;;;;14.27;84.27;101488.13;5054337;28;20029;-36
2022/06/20 05:28:57;;;;;;;5.82;1.70;;;;;;;14.29;84.35;101494.16;5054167;28;20033;-35
2022/06/20 05:31:44;;;;;;;6.13;1.75;;;;;;;14.29;83.87;101511.31;5054201;28;20127;-36
2022/06/20 05:34:14;;;;;;;6.35;1.88;;;;;;;14.40;84.29;101506.94;5054681;28;20103;-36
2022/06/20 05:36:53;;;;;;;7.60;1.83;;;;;;;14.39;84.11;101511.50;5054103;28;20501;-36
2022/06/20 05:39:38;;;;;;;5.80;1.75;;;;;;;14.45;84.55;101503.50;5054633;28;20060;-35
2022/06/20 05:42:05;;;;;;;7.82;2.03;;;;;;;14.39;83.99;101483.47;5053950;28;20036;-36
2022/06/20 05:44:30;;;;;;;4.53;1.38;;;;;;;14.49;83.89;101502.78;5054002;28;20091;-36
2022/06/20 05:47:08;;;;;;;;;;;;;;;14.65;83.45;101496.59;5054381;28;20025;-36
2022/06/20 05:49:40;;;;;;;5.93;1.33;;;;;;;14.64;83.80;101500.38;5053689;28;19932;-36
2022/06/20 05:52:08;;;;;;;6.53;1.65;;;;;;;14.60;83.28;101495.66;5053917;28;20056;-36
2022/06/20 05:54:39;;;;;;;7.50;1.80;;;;;;;14.68;83.54;101498.81;5053848;28;20029;-36
2022/06/20 05:57:11;;;;;;;8.52;2.10;;;;;;;14.72;83.20;101503.78;5053699;28;20032;-36
2022/06/20 05:59:43;;;;;;;6.80;2.05;;;;;;;14.70;82.95;101493.13;5054169;28;20119;-36
2022/06/20 06:03:06;;;;;;;8.00;1.83;;;;;;;14.81;83.22;101510.50;5053464;28;20409;-36
2022/06/20 06:05:38;;;;;;;5.75;1.67;;;;;;;14.71;82.28;101502.13;4973043;28;20062;-36
2022/06/20 06:08:27;;;;;;;5.80;1.83;;;;;;;14.88;83.05;101514.72;4972577;28;20039;-36
2022/06/20 06:11:16;;;;;;;4.63;1.58;;;;;;;14.90;82.04;101523.47;4972901;28;20620;-35
2022/06/20 06:13:50;;;;;;;6.15;1.90;;;;;;;14.89;82.15;101518.28;4972930;28;20038;-36
2022/06/20 06:19:13;;;;;;;7.57;2.00;;;;;;;14.83;81.19;101527.41;4972394;28;20124;-36
2022/06/20 06:21:38;;;;;;;;;;;;;;;14.98;81.42;101530.41;4972879;28;20055;-36
2022/06/20 06:24:06;;;;;;;6.55;1.98;;;;;;;14.87;80.90;101518.50;4972406;28;20474;-36
2022/06/20 06:26:33;;;;;;;7.32;2.05;;;;;;;14.94;81.26;101534.72;4972065;28;20110;-36
2022/06/20 06:28:59;;;;;;;4.22;1.60;;;;;;;14.95;81.20;101509.13;4972086;28;20133;-36
2022/06/20 06:31:26;;;;;;;;;;;;;;;15.21;80.88;101534.94;4972606;28;20487;-36
2022/06/20 06:33:59;;;;;;;2.88;1.08;;;;;;;15.18;79.09;101524.53;4972300;28;20015;-36
2022/06/20 06:36:32;;;;;;;4.50;1.40;;;;;;;15.24;79.16;101523.56;4972085;28;20042;-36
2022/06/20 06:39:14;;;;;;;5.20;1.40;;;;;;;15.27;78.93;101501.25;4972576;28;20035;-36
2022/06/20 06:41:48;;;;;;;4.80;1.40;;;;;;;15.30;77.76;101524.47;4984399;28;20079;-35
2022/06/20 06:44:24;;;;;;;7.18;1.40;;;;;;;15.18;77.44;101530.00;5052897;28;20061;-36
2022/06/20 06:46:53;;;;;;;4.80;1.40;;;;;;;15.27;78.17;101509.41;5053211;28;20024;-36
2022/06/20 06:49:47;;;;;;;7.15;1.73;;;;;;;15.38;77.43;101532.25;5052901;28;20028;-36
2022/06/20 06:52:13;;;;;;;7.78;1.90;;;;;;;15.47;75.96;101533.50;5053408;28;20029;-36
2022/06/20 06:54:41;;;;;;;5.10;1.70;;;;;;;15.55;77.38;101530.34;5052958;28;20044;-36
2022/06/20 06:57:13;;;;;;;4.70;1.65;;;;;;;15.46;75.85;101542.72;5052842;28;20064;-36
2022/06/20 07:00:05;;;;;;;6.22;1.70;;;;;;;15.53;76.72;101539.84;5052799;28;20056;-36
2022/06/20 07:02:36;;;;;;;3.28;1.48;;;;;;;15.60;75.96;101538.59;5030280;28;20037;-36
2022/06/20 07:05:12;;;;;;;5.65;2.03;;;;;;;15.55;75.24;101543.16;5030404;28;20418;-36
2022/06/20 07:07:43;;;;;;;6.45;1.80;;;;;;;15.49;75.41;101541.41;5030818;28;20164;-36
2022/06/20 07:10:17;;;;;;;5.78;1.80;;;;;;;15.57;75.58;101554.66;5030624;28;20036;-36
2022/06/20 07:12:51;;;;;;;6.10;1.90;;;;;;;15.46;75.81;101549.00;5030486;28;20030;-36
2022/06/20 07:15:16;;;;;;;4.82;1.58;;;;;;;15.56;75.13;101564.69;5030423;28;20040;-36
2022/06/20 07:17:56;;;;;;;4.60;1.83;;;;;;;15.66;75.33;101566.78;5030799;28;20033;-36
2022/06/20 07:20:26;;;;;;;5.60;1.70;;;;;;;15.64;74.73;101563.50;5030644;28;20037;-36
2022/06/20 07:22:53;;;;;;;5.47;1.65;;;;;;;15.83;74.56;101569.53;5030803;28;20109;-36
2022/06/20 07:25:23;;;;;;;5.80;1.48;;;;;;;15.89;72.63;101565.81;5030095;28;20482;-36
2022/06/20 07:27:59;;;;;;;5.60;1.50;;;;;;;15.79;72.96;101561.03;5030335;28;20509;-36
2022/06/20 07:30:30;;;;;;;4.63;1.53;;;;;;;15.66;73.01;101564.94;5030139;28;20174;-36
2022/06/20 07:33:06;;;;;;;8.32;1.83;;;;;;;15.81;73.31;101566.22;5030054;28;20156;-36
2022/06/20 07:35:37;;;;;;;5.18;1.60;;;;;;;16.12;73.77;101573.81;5030049;28;20029;-36
2022/06/20 07:38:13;;;;;;;4.82;1.70;;;;;;;16.20;73.11;101576.13;5031634;28;20033;-36
2022/06/20 07:40:50;;;;;;;7.05;1.92;;;;;;;16.32;71.72;101567.00;5055836;28;20431;-36
2022/06/20 07:43:20;;;;;;;6.40;2.15;;;;;;;16.42;70.29;101551.59;5056472;28;20029;-36
2022/06/20 07:45:49;;;;;;;6.43;1.90;;;;;;;16.46;69.16;101574.56;5056415;28;20524;-36
2022/06/20 07:48:39;;;;;;;8.20;2.03;;;;;;;16.56;70.03;101568.41;5056398;28;20096;-36
2022/06/20 07:51:13;;;;;;;4.97;1.80;;;;;;;16.35;67.49;101563.78;5056548;28;20035;-36
2022/06/20 07:53:49;;;;;;;6.68;1.70;;;;;;;16.27;67.92;101572.38;5056523;28;20496;-36
2022/06/20 07:56:41;;;;;;;6.63;1.73;;;;;;;16.27;67.91;101581.41;5056541;28;20021;-36
2022/06/20 07:59:57;;;;;;;5.38;1.65;;;;;;;16.33;68.54;101577.66;5033665;28;20084;-36
2022/06/20 08:02:44;;;;;;;5.70;1.73;;;;;;;16.60;66.97;101576.94;4974941;28;20035;-36
2022/06/20 08:05:18;;;;;;;4.75;1.60;;;;;;;16.83;64.96;101578.59;4975191;28;20136;-36
2022/06/20 08:08:09;;;;;;;6.07;1.63;;;;;;;17.11;64.41;101572.09;4974492;28;20034;-36
2022/06/20 08:10:41;;;;;;;5.40;1.50;;;;;;;17.33;61.44;101580.28;4974529;28;20487;-36
2022/06/20 08:13:28;;;;;;;3.97;1.27;;;;;;;17.28;58.37;101583.78;4974790;28;20448;-36
2022/06/20 08:16:16;;;;;;;3.33;1.48;;;;;;;17.39;62.12;101566.38;4974602;28;20097;-36
2022/06/20 08:18:42;;;;;;;4.95;1.92;;;;;;;17.46;59.90;101588.03;4974874;28;20422;-36
2022/06/20 08:21:16;;;;;;;;;;;;;;;17.63;59.38;101577.81;4975512;28;20070;-36
2022/06/20 08:23:50;;;;;;;4.57;1.63;;;;;;;17.70;61.36;101566.66;4974562;28;19914;-36
2022/06/20 08:26:27;;;;;;;4.47;1.45;;;;;;;17.84;60.43;101556.94;4974201;28;20093;-36
2022/06/20 08:29:26;;;;;;;2.60;1.30;;;;;;;18.06;59.78;101580.66;4974802;28;20038;-36
2022/06/20 08:31:55;;;;;;;4.35;1.55;;;;;;;18.15;58.96;101577.13;4974858;28;20436;-36
2022/06/20 08:34:33;;;;;;;5.63;1.48;;;;;;;18.26;58.26;101580.78;4974290;28;20069;-36
2022/06/20 08:37:17;;;;;;;4.28;1.40;;;;;;;18.21;57.77;101584.31;5044579;28;20515;-36
2022/06/20 08:39:58;;;;;;;3.53;1.70;;;;;;;18.23;58.03;101582.13;5055428;28;20024;-36
2022/06/20 08:42:48;;;;;;;5.60;1.77;;;;;;;18.32;56.71;101589.84;5055290;28;20361;-36
2022/06/20 08:45:32;;;;;;;4.97;1.63;;;;;;;18.16;56.90;101591.66;5054969;28;20035;-36
2022/06/20 08:48:29;;;;;;;5.43;1.60;;;;;;;18.00;57.02;101594.25;5054793;28;20025;-36
2022/06/20 08:51:19;;;;;;;4.43;1.50;;;;;;;18.15;56.39;101600.94;5054895;28;20021;-36
2022/06/20 08:54:07;;;;;;;5.07;1.42;;;;;;;18.21;55.98;101603.47;5054847;28;20035;-36
2022/06/20 08:56:49;;;;;;;5.93;1.80;;;;;;;18.01;56.82;101595.13;5054871;28;20036;-36
2022/06/20 08:59:17;;;;;;;4.95;1.73;;;;;;;17.98;57.66;101596.44;5055262;28;20484;-36
2022/06/20 09:01:54;;;;;;;6.38;2.17;;;;;;;18.11;58.07;101611.59;5054705;28;20059;-36
2022/06/20 09:04:38;;;;;;;6.15;1.88;;;;;;;18.43;57.87;101613.44;5054489;28;20038;-36
2022/06/20 09:07:22;;;;;;;4.50;1.70;;;;;;;18.79;56.35;101617.25;5055416;28;20025;-36
2022/06/20 09:10:09;;;;;;;6.22;1.60;;;;;;;18.82;53.39;101622.16;5054778;28;20032;-36
2022/06/20 09:12:57;;;;;;;3.53;1.40;;;;;;;18.65;53.48;101605.91;5054841;28;20090;-36
2022/06/20 09:15:32;;;;;;;5.15;1.80;;;;;;;18.65;50.93;101611.38;5054858;28;20251;-36
2022/06/20 09:18:07;;;;;;;3.20;1.42;;;;;;;18.82;51.93;101615.88;5055427;28;20379;-36
2022/06/20 09:20:34;;;;;;;5.57;1.90;;;;;;;19.13;52.50;101622.28;5054653;28;20091;-36
2022/06/20 09:23:35;;;;;;;6.63;1.83;;;;;;;19.30;52.21;101618.22;5054195;28;20033;-36
2022/06/20 09:26:08;;;;;;;5.30;1.60;;;;;;;19.49;51.32;101624.03;5032209;28;20140;-36
2022/06/20 09:28:49;;;;;;;5.40;2.05;;;;;;;19.51;52.27;101615.50;5032612;28;20041;-36
2022/06/20 09:31:41;;;;;;;4.63;1.73;;;;;;;19.44;52.15;101610.31;5031847;28;20045;-36
2022/06/20 09:34:26;;;;;;;5.78;1.90;;;;;;;19.23;53.24;101616.84;5032354;28;20529;-36
2022/06/20 09:37:03;;;;;;;5.13;1.75;;;;;;;19.08;52.69;101625.00;5031932;28;20033;-36
2022/06/20 09:39:58;;;;;;;4.70;2.08;;;;;;;18.92;53.71;101632.34;5031731;28;20038;-36
2022/06/20 09:42:33;;;;;;;5.93;2.20;;;;;;;18.59;53.37;101620.66;5031881;28;20057;-36
2022/06/20 09:45:24;;;;;;;4.65;1.92;;;;;;;18.88;52.61;101625.75;5031883;28;20056;-36
2022/06/20 09:48:14;;;;;;;4.80;1.83;;;;;;;19.17;52.89;101624.22;4972890;28;20151;-36
2022/06/20 09:51:03;;;;;;;7.82;2.35;;;;;;;19.33;52.05;101622.34;4973033;28;20420;-36
2022/06/20 09:54:13;;;;;;;4.28;1.80;;;;;;;19.79;52.43;101619.69;4973112;28;20101;-36
2022/06/20 09:56:52;;;;;;;5.82;1.98;;;;;;;19.88;49.93;101618.06;4973260;28;20037;-36
2022/06/20 09:59:34;;;;;;;5.15;1.80;;;;;;;20.11;51.19;101618.59;4972943;28;20046;-36
2022/06/20 10:02:11;;;;;;;5.30;2.22;;;;;;;20.05;48.83;101624.06;4971700;28;20121;-36
2022/06/20 10:05:02;;;;;;;6.20;1.77;;;;;;;20.23;50.61;101603.47;4972474;28;20042;-36
2022/06/20 10:07:41;;;;;;;5.35;2.13;;;;;;;20.52;48.90;101611.94;4972476;28;20182;-36
2022/06/20 10:10:24;;;;;;;5.53;2.03;;;;;;;20.45;49.78;101613.31;4972933;28;20031;-36
2022/06/20 10:13:13;;;;;;;5.75;1.80;;;;;;;20.39;49.88;101617.16;4973174;28;20046;-36
2022/06/20 10:15:47;;;;;;;7.05;2.28;;;;;;;20.09;49.06;101627.09;4972649;28;20035;-36
2022/06/20 10:18:31;;;;;;;6.18;1.98;;;;;;;20.43;49.54;101623.75;4972792;28;20050;-36
2022/06/20 10:21:11;;;;;;;6.60;2.00;;;;;;;20.80;48.07;101620.66;4972305;28;20110;-36
2022/06/20 10:23:42;;;;;;;5.80;2.13;;;;;;;20.44;45.43;101625.38;4972453;28;20027;-36
2022/06/20 10:26:25;;;;;;;6.95;2.38;;;;;;;20.48;47.60;101643.00;5052984;28;20041;-36
2022/06/20 10:29:18;;;;;;;4.35;2.00;;;;;;;20.37;48.19;101622.94;5053127;28;20045;-36
2022/06/20 10:31:51;;;;;;;4.70;2.00;;;;;;;20.27;48.14;101637.50;5052568;28;20116;-36
2022/06/20 10:34:29;;;;;;;7.07;2.17;;;;;;;20.44;50.35;101641.88;5053575;28;20117;-36
2022/06/20 10:37:16;;;;;;;5.00;1.70;;;;;;;20.77;49.64;101641.25;5053583;28;20032;-36
2022/06/20 10:39:51;;;;;;;5.80;2.10;;;;;;;20.91;47.89;101641.50;5053326;28;20027;-36
2022/06/20 10:42:33;;;;;;;4.75;1.88;;;;;;;20.95;46.55;101641.75;5053197;28;20087;-36
2022/06/20 10:45:07;;;;;;;6.55;2.17;;;;;;;21.18;46.62;101641.13;5053684;28;20036;-36
2022/06/20 10:48:25;;;;;;;5.60;2.20;;;;;;;21.64;47.01;101640.84;5053345;28;20025;-36
2022/06/20 10:51:30;;;;;;;5.65;2.05;;;;;;;21.69;46.08;101640.81;4971866;28;20170;-36
2022/06/20 10:54:11;;;;;;;5.18;2.15;;;;;;;21.20;46.97;101652.63;4953345;29;20047;-36
2022/06/20 10:56:51;;;;;;;4.80;1.67;;;;;;;20.90;47.61;101656.34;4952967;29;20027;-36
2022/06/20 10:59:33;;;;;;;5.88;2.67;;;;;;;20.40;46.57;101647.13;4952227;29;20043;-36
2022/06/20 11:02:55;;;;;;;5.65;2.08;;;;;;;20.61;48.18;101664.41;4952725;29;20039;-36
2022/06/20 11:05:54;;;;;;;5.75;2.28;;;;;;;20.91;46.79;101651.66;4915022;29;20116;-36
2022/06/20 11:08:24;;;;;;;5.53;1.70;;;;;;;21.24;44.85;101653.72;4914307;29;20079;-36
2022/06/20 11:11:09;;;;;;;5.93;2.15;;;;;;;21.14;45.64;101661.22;4914433;29;20040;-36
2022/06/20 11:13:46;;;;;;;6.10;2.17;;;;;;;21.08;46.64;101663.97;4917134;29;20126;-36
2022/06/20 11:16:11;;;;;;;5.95;2.17;;;;;;;20.94;46.51;101657.44;4918535;29;20044;-36
2022/06/20 11:19:01;;;;;;;6.45;2.13;;;;;;;21.16;47.76;101659.00;4918790;29;20382;-36
2022/06/20 11:21:56;;;;;;;6.20;2.15;;;;;;;21.41;45.81;101661.63;4918447;29;20048;-36
2022/06/20 11:24:52;;;;;;;6.55;2.35;;;;;;;21.60;45.07;101664.53;4918429;29;20032;-36
2022/06/20 11:27:37;;;;;;;8.07;1.98;;;;;;;21.15;45.70;101666.41;4938150;29;20342;-36
2022/06/20 11:30:27;;;;;;;6.70;2.00;;;;;;;21.22;45.39;101669.66;4974095;28;20050;-36
2022/06/20 11:33:11;;;;;;;5.03;1.58;;;;;;;21.41;44.95;101652.56;4994658;28;20124;-36
2022/06/20 11:36:03;;;;;;;5.07;2.00;;;;;;;21.55;43.97;101637.88;5021128;28;20045;-36
2022/06/20 11:38:57;;;;;;;6.07;2.30;;;;;;;22.08;44.36;101648.22;5056646;28;20112;-36
2022/06/20 11:41:34;;;;;;;3.95;1.67;;;;;;;22.58;41.75;101657.13;5056068;28;20021;-36
2022/06/20 11:44:24;;;;;;;4.18;1.80;;;;;;;22.40;43.03;101664.22;5056168;28;20035;-36
2022/06/20 11:47:16;;;;;;;5.78;2.08;;;;;;;22.49;41.73;101658.88;5056339;28;20322;-36
2022/06/20 11:49:56;;;;;;;4.78;1.70;;;;;;;22.58;42.02;101657.13;5056877;28;20480;-36
2022/06/20 11:52:29;;;;;;;6.07;2.03;;;;;;;22.84;40.75;101647.47;5056340;28;20105;-36
2022/06/20 11:55:11;;;;;;;4.75;1.70;;;;;;;23.16;39.39;101653.44;5055964;28;20488;-36
2022/06/20 11:57:45;;;;;;;3.72;1.60;;;;;;;22.96;40.40;101646.25;5056163;28;20381;-36
2022/06/20 12:00:21;;;;;;;4.80;1.58;;;;;;;22.51;41.00;101645.63;5056120;28;20041;-36
2022/06/20 12:02:46;;;;;;;5.50;1.83;;;;;;;22.28;41.06;101661.81;5056117;28;20029;-36
2022/06/20 12:05:17;;;;;;;4.60;1.47;;;;;;;22.45;41.68;101653.13;5056095;28;20025;-36
2022/06/20 12:07:59;;;;;;;4.35;1.60;;;;;;;22.70;41.13;101653.97;5055681;28;20727;-36
2022/06/20 12:10:38;;;;;;;5.70;1.67;;;;;;;22.57;40.64;101655.47;5055960;28;20090;-36
2022/06/20 12:13:18;;;;;;;6.57;1.67;;;;;;;22.10;40.27;101662.50;5055870;28;20032;-36
2022/06/20 12:16:06;;;;;;;5.50;1.73;;;;;;;21.76;41.78;101635.78;5055387;28;20027;-36
2022/06/20 12:18:42;;;;;;;4.97;1.40;;;;;;;21.87;40.67;101657.75;5056260;28;20029;-36
2022/06/20 12:24:05;;;;;;;3.95;1.58;;;;;;;22.58;39.09;101657.13;5054540;28;20032;-36
2022/06/20 12:26:39;;;;;;;4.63;1.75;;;;;;;22.95;38.91;101655.63;5055505;28;20040;-36
2022/06/20 12:29:13;;;;;;;6.93;1.67;;;;;;;23.04;39.36;101648.34;5055080;28;20031;-36